Kapalua Airport Lahaina US
ICAO: PHJH
IATA:
Category: Medium
Scheduled Services:

Elevation: 256 ft
TransAlt. 0 ft.

Airport Communications:
AWOS:118.525
MAUI RDO:123.6
CTAF/UNICOM:122.7

PHJH Zoom In..

If you have problems with the map follow the link
https://www.worldairports.se/pages/airport.php?
ICAO=PHJH

Runways:

(A) RW 02 length 3000 ft width 100 ft
---- / hdg 17

(B) RW 20 length 3000 ft width 100 ft
---- / hdg 197

Location; PHJH
Day. 17 / Time. 01.45 Zulu
* Altimeter: 29.95
* Temperature: 25° c. 77°f.
* Wind from: 020° Speed 14 kn.
Dewpoint: 20° c.
Visibility: 15 Statute Miles.
Clouds: Few 2500 ft.
Clouds: Scattered 3500 ft.
Clouds: Broken 5000 ft.

PHJH 170145Z 02014KT 15SM FEW025 SCT035 BKN050 25/20 A2995


Wind From 020°
Speed 14 kn.

 
 
jpsmedia.com for Web Design worldairports.se 2018   terms of use